sensor_id;sensor_type;location;lat;lon;timestamp;P1;durP1;ratioP1;P2;durP2;ratioP2
76256;SDS011;65074;50.436;8.672;2024-03-23T00:55:12;15.98;;;5.88;;
76256;SDS011;65074;50.436;8.672;2024-03-23T00:57:38;11.25;;;4.43;;
76256;SDS011;65074;50.436;8.672;2024-03-23T01:00:04;10.75;;;5.28;;
76256;SDS011;65074;50.436;8.672;2024-03-23T01:02:31;12.80;;;6.25;;
76256;SDS011;65074;50.436;8.672;2024-03-23T01:04:57;13.88;;;5.38;;
76256;SDS011;65074;50.436;8.672;2024-03-23T01:07:22;14.60;;;6.90;;
76256;SDS011;65074;50.436;8.672;2024-03-23T01:09:47;13.93;;;6.32;;
76256;SDS011;65074;50.436;8.672;2024-03-23T01:12:13;9.75;;;5.40;;
76256;SDS011;65074;50.436;8.672;2024-03-23T01:14:38;16.15;;;6.75;;
76256;SDS011;65074;50.436;8.672;2024-03-23T01:17:03;12.68;;;5.28;;
76256;SDS011;65074;50.436;8.672;2024-03-23T01:19:29;13.65;;;5.18;;
76256;SDS011;65074;50.436;8.672;2024-03-23T01:21:54;12.70;;;5.30;;
76256;SDS011;65074;50.436;8.672;2024-03-23T01:24:19;13.90;;;5.60;;
76256;SDS011;65074;50.436;8.672;2024-03-23T01:26:45;17.92;;;6.47;;
76256;SDS011;65074;50.436;8.672;2024-03-23T01:29:10;11.02;;;5.50;;
76256;SDS011;65074;50.436;8.672;2024-03-23T01:31:36;11.75;;;5.28;;
76256;SDS011;65074;50.436;8.672;2024-03-23T01:34:01;11.85;;;5.80;;
76256;SDS011;65074;50.436;8.672;2024-03-23T01:36:28;13.25;;;5.55;;
76256;SDS011;65074;50.436;8.672;2024-03-23T01:38:53;11.82;;;4.85;;
76256;SDS011;65074;50.436;8.672;2024-03-23T01:41:18;19.50;;;6.38;;
76256;SDS011;65074;50.436;8.672;2024-03-23T01:43:44;12.82;;;5.10;;
76256;SDS011;65074;50.436;8.672;2024-03-23T01:46:09;10.13;;;5.30;;
76256;SDS011;65074;50.436;8.672;2024-03-23T01:48:35;13.77;;;6.18;;
76256;SDS011;65074;50.436;8.672;2024-03-23T01:51:01;12.30;;;5.40;;
76256;SDS011;65074;50.436;8.672;2024-03-23T01:53:26;11.50;;;6.65;;
76256;SDS011;65074;50.436;8.672;2024-03-23T01:55:51;11.32;;;5.40;;
76256;SDS011;65074;50.436;8.672;2024-03-23T01:58:17;11.90;;;5.93;;
76256;SDS011;65074;50.436;8.672;2024-03-23T02:00:42;15.80;;;6.05;;
76256;SDS011;65074;50.436;8.672;2024-03-23T02:03:23;14.98;;;5.95;;
76256;SDS011;65074;50.436;8.672;2024-03-23T02:05:53;11.50;;;5.25;;
76256;SDS011;65074;50.436;8.672;2024-03-23T02:08:20;16.55;;;5.80;;
76256;SDS011;65074;50.436;8.672;2024-03-23T02:10:47;9.45;;;5.72;;
76256;SDS011;65074;50.436;8.672;2024-03-23T02:13:14;11.48;;;5.85;;
76256;SDS011;65074;50.436;8.672;2024-03-23T02:15:40;7.70;;;4.47;;
76256;SDS011;65074;50.436;8.672;2024-03-23T02:18:07;17.13;;;7.80;;
76256;SDS011;65074;50.436;8.672;2024-03-23T02:20:33;17.85;;;7.10;;
76256;SDS011;65074;50.436;8.672;2024-03-23T02:22:58;13.05;;;5.70;;
76256;SDS011;65074;50.436;8.672;2024-03-23T02:25:23;14.38;;;5.82;;
76256;SDS011;65074;50.436;8.672;2024-03-23T02:27:49;11.43;;;6.03;;
76256;SDS011;65074;50.436;8.672;2024-03-23T02:30:14;12.77;;;5.55;;
76256;SDS011;65074;50.436;8.672;2024-03-23T02:32:40;13.70;;;6.43;;
76256;SDS011;65074;50.436;8.672;2024-03-23T02:35:05;12.15;;;6.30;;
76256;SDS011;65074;50.436;8.672;2024-03-23T02:37:31;16.73;;;6.25;;
76256;SDS011;65074;50.436;8.672;2024-03-23T02:39:57;18.35;;;7.35;;
76256;SDS011;65074;50.436;8.672;2024-03-23T02:42:23;18.83;;;6.32;;
76256;SDS011;65074;50.436;8.672;2024-03-23T02:44:48;13.32;;;5.70;;
76256;SDS011;65074;50.436;8.672;2024-03-23T02:47:14;14.20;;;6.10;;
76256;SDS011;65074;50.436;8.672;2024-03-23T02:49:39;12.60;;;6.10;;
76256;SDS011;65074;50.436;8.672;2024-03-23T02:52:04;12.45;;;4.60;;
76256;SDS011;65074;50.436;8.672;2024-03-23T02:54:30;16.40;;;7.00;;
76256;SDS011;65074;50.436;8.672;2024-03-23T02:56:55;12.88;;;5.65;;
76256;SDS011;65074;50.436;8.672;2024-03-23T02:59:20;19.70;;;5.63;;
76256;SDS011;65074;50.436;8.672;2024-03-23T03:01:46;12.82;;;6.43;;
76256;SDS011;65074;50.436;8.672;2024-03-23T03:04:11;14.85;;;6.55;;
76256;SDS011;65074;50.436;8.672;2024-03-23T03:06:36;13.90;;;6.03;;
76256;SDS011;65074;50.436;8.672;2024-03-23T03:09:02;13.07;;;6.38;;
76256;SDS011;65074;50.436;8.672;2024-03-23T03:11:27;13.35;;;6.80;;
76256;SDS011;65074;50.436;8.672;2024-03-23T03:13:53;12.63;;;5.60;;
76256;SDS011;65074;50.436;8.672;2024-03-23T03:16:18;12.80;;;5.15;;
76256;SDS011;65074;50.436;8.672;2024-03-23T03:18:43;13.32;;;5.38;;
76256;SDS011;65074;50.436;8.672;2024-03-23T03:21:11;11.98;;;5.20;;
76256;SDS011;65074;50.436;8.672;2024-03-23T03:23:37;13.82;;;5.18;;
76256;SDS011;65074;50.436;8.672;2024-03-23T03:26:03;13.82;;;6.60;;
76256;SDS011;65074;50.436;8.672;2024-03-23T03:28:32;9.52;;;5.50;;
76256;SDS011;65074;50.436;8.672;2024-03-23T03:30:58;14.88;;;7.32;;
76256;SDS011;65074;50.436;8.672;2024-03-23T03:33:24;14.10;;;5.57;;
76256;SDS011;65074;50.436;8.672;2024-03-23T03:35:49;14.80;;;6.05;;
76256;SDS011;65074;50.436;8.672;2024-03-23T03:38:16;10.27;;;4.47;;
76256;SDS011;65074;50.436;8.672;2024-03-23T03:40:42;12.48;;;5.55;;
76256;SDS011;65074;50.436;8.672;2024-03-23T03:43:07;15.15;;;7.38;;
76256;SDS011;65074;50.436;8.672;2024-03-23T03:45:33;14.68;;;6.68;;
76256;SDS011;65074;50.436;8.672;2024-03-23T03:47:58;14.32;;;6.40;;
76256;SDS011;65074;50.436;8.672;2024-03-23T03:50:24;14.57;;;7.35;;
76256;SDS011;65074;50.436;8.672;2024-03-23T03:52:49;13.00;;;5.95;;
76256;SDS011;65074;50.436;8.672;2024-03-23T03:55:15;14.20;;;6.63;;
76256;SDS011;65074;50.436;8.672;2024-03-23T03:57:41;15.90;;;5.95;;
76256;SDS011;65074;50.436;8.672;2024-03-23T04:00:06;8.70;;;5.35;;
76256;SDS011;65074;50.436;8.672;2024-03-23T04:05:01;18.15;;;4.70;;
76256;SDS011;65074;50.436;8.672;2024-03-23T04:07:28;10.48;;;4.35;;
76256;SDS011;65074;50.436;8.672;2024-03-23T04:09:53;5.45;;;2.55;;
76256;SDS011;65074;50.436;8.672;2024-03-23T04:12:19;8.90;;;3.30;;
76256;SDS011;65074;50.436;8.672;2024-03-23T04:14:45;8.73;;;2.20;;
76256;SDS011;65074;50.436;8.672;2024-03-23T04:17:10;5.03;;;2.50;;
76256;SDS011;65074;50.436;8.672;2024-03-23T04:19:36;3.58;;;2.08;;
76256;SDS011;65074;50.436;8.672;2024-03-23T04:22:02;3.28;;;1.85;;
76256;SDS011;65074;50.436;8.672;2024-03-23T04:24:28;2.88;;;1.20;;
76256;SDS011;65074;50.436;8.672;2024-03-23T04:26:54;3.63;;;1.00;;
76256;SDS011;65074;50.436;8.672;2024-03-23T04:29:19;1.38;;;0.70;;
76256;SDS011;65074;50.436;8.672;2024-03-23T04:31:44;0.68;;;0.38;;
76256;SDS011;65074;50.436;8.672;2024-03-23T04:34:10;0.30;;;0.30;;
76256;SDS011;65074;50.436;8.672;2024-03-23T04:36:35;0.98;;;0.57;;
76256;SDS011;65074;50.436;8.672;2024-03-23T04:39:01;0.80;;;0.30;;
76256;SDS011;65074;50.436;8.672;2024-03-23T04:41:27;0.65;;;0.40;;
76256;SDS011;65074;50.436;8.672;2024-03-23T04:43:53;0.50;;;0.35;;
76256;SDS011;65074;50.436;8.672;2024-03-23T04:46:18;1.02;;;0.30;;
76256;SDS011;65074;50.436;8.672;2024-03-23T04:48:43;0.20;;;0.15;;
76256;SDS011;65074;50.436;8.672;2024-03-23T04:51:10;0.10;;;0.10;;
76256;SDS011;65074;50.436;8.672;2024-03-23T04:53:37;1.02;;;0.15;;
76256;SDS011;65074;50.436;8.672;2024-03-23T04:56:03;0.52;;;0.10;;
76256;SDS011;65074;50.436;8.672;2024-03-23T04:58:29;0.35;;;0.25;;
76256;SDS011;65074;50.436;8.672;2024-03-23T05:00:55;0.10;;;0.10;;
76256;SDS011;65074;50.436;8.672;2024-03-23T05:03:21;0.20;;;0.20;;
76256;SDS011;65074;50.436;8.672;2024-03-23T05:05:47;0.20;;;0.20;;
76256;SDS011;65074;50.436;8.672;2024-03-23T05:08:13;0.20;;;0.10;;
76256;SDS011;65074;50.436;8.672;2024-03-23T05:10:39;0.00;;;0.00;;
76256;SDS011;65074;50.436;8.672;2024-03-23T05:13:05;0.30;;;0.10;;
76256;SDS011;65074;50.436;8.672;2024-03-23T05:15:31;0.47;;;0.32;;
76256;SDS011;65074;50.436;8.672;2024-03-23T05:17:57;0.38;;;0.38;;
76256;SDS011;65074;50.436;8.672;2024-03-23T05:20:22;0.35;;;0.13;;
76256;SDS011;65074;50.436;8.672;2024-03-23T05:22:47;0.32;;;0.32;;
76256;SDS011;65074;50.436;8.672;2024-03-23T05:25:13;0.10;;;0.10;;
76256;SDS011;65074;50.436;8.672;2024-03-23T05:27:38;0.20;;;0.00;;
76256;SDS011;65074;50.436;8.672;2024-03-23T05:30:04;0.10;;;0.10;;
76256;SDS011;65074;50.436;8.672;2024-03-23T05:32:31;0.32;;;0.17;;
76256;SDS011;65074;50.436;8.672;2024-03-23T05:34:56;0.20;;;0.13;;
76256;SDS011;65074;50.436;8.672;2024-03-23T05:37:22;2.53;;;0.32;;
76256;SDS011;65074;50.436;8.672;2024-03-23T05:39:48;0.98;;;0.38;;
76256;SDS011;65074;50.436;8.672;2024-03-23T05:42:17;0.03;;;0.03;;
76256;SDS011;65074;50.436;8.672;2024-03-23T05:44:43;0.10;;;0.10;;
76256;SDS011;65074;50.436;8.672;2024-03-23T05:47:12;0.13;;;0.10;;
76256;SDS011;65074;50.436;8.672;2024-03-23T05:49:39;0.40;;;0.40;;
76256;SDS011;65074;50.436;8.672;2024-03-23T05:52:06;0.00;;;0.00;;
76256;SDS011;65074;50.436;8.672;2024-03-23T05:54:33;0.47;;;0.20;;
76256;SDS011;65074;50.436;8.672;2024-03-23T05:56:58;0.00;;;0.00;;
76256;SDS011;65074;50.436;8.672;2024-03-23T05:59:24;0.00;;;0.00;;
76256;SDS011;65074;50.436;8.672;2024-03-23T06:01:50;0.17;;;0.10;;
76256;SDS011;65074;50.436;8.672;2024-03-23T06:04:15;0.03;;;0.03;;
76256;SDS011;65074;50.436;8.672;2024-03-23T06:06:41;0.10;;;0.00;;
76256;SDS011;65074;50.436;8.672;2024-03-23T06:09:06;0.00;;;0.00;;
76256;SDS011;65074;50.436;8.672;2024-03-23T06:11:31;0.35;;;0.10;;
76256;SDS011;65074;50.436;8.672;2024-03-23T06:13:57;0.32;;;0.10;;
76256;SDS011;65074;50.436;8.672;2024-03-23T06:16:22;0.10;;;0.10;;
76256;SDS011;65074;50.436;8.672;2024-03-23T06:18:52;0.00;;;0.00;;
76256;SDS011;65074;50.436;8.672;2024-03-23T06:21:17;1.45;;;0.10;;
76256;SDS011;65074;50.436;8.672;2024-03-23T06:23:43;0.00;;;0.00;;
76256;SDS011;65074;50.436;8.672;2024-03-23T06:26:13;0.00;;;0.00;;
76256;SDS011;65074;50.436;8.672;2024-03-23T06:28:38;0.28;;;0.28;;
76256;SDS011;65074;50.436;8.672;2024-03-23T06:31:08;0.00;;;0.00;;
76256;SDS011;65074;50.436;8.672;2024-03-23T06:33:34;0.00;;;0.00;;
76256;SDS011;65074;50.436;8.672;2024-03-23T06:35:59;0.00;;;0.00;;
76256;SDS011;65074;50.436;8.672;2024-03-23T06:38:25;0.00;;;0.00;;
76256;SDS011;65074;50.436;8.672;2024-03-23T06:40:50;0.40;;;0.30;;
76256;SDS011;65074;50.436;8.672;2024-03-23T06:43:17;3.63;;;0.20;;
76256;SDS011;65074;50.436;8.672;2024-03-23T06:45:44;0.22;;;0.22;;
76256;SDS011;65074;50.436;8.672;2024-03-23T06:48:17;0.08;;;0.08;;
76256;SDS011;65074;50.436;8.672;2024-03-23T06:50:42;0.65;;;0.65;;
76256;SDS011;65074;50.436;8.672;2024-03-23T06:53:07;0.45;;;0.00;;
76256;SDS011;65074;50.436;8.672;2024-03-23T06:55:33;0.32;;;0.20;;
76256;SDS011;65074;50.436;8.672;2024-03-23T06:57:58;1.45;;;0.20;;
76256;SDS011;65074;50.436;8.672;2024-03-23T07:00:23;2.03;;;0.15;;
76256;SDS011;65074;50.436;8.672;2024-03-23T07:02:50;0.55;;;0.20;;
76256;SDS011;65074;50.436;8.672;2024-03-23T07:05:15;0.08;;;0.08;;
76256;SDS011;65074;50.436;8.672;2024-03-23T07:07:40;0.17;;;0.10;;
76256;SDS011;65074;50.436;8.672;2024-03-23T07:10:06;0.45;;;0.20;;
76256;SDS011;65074;50.436;8.672;2024-03-23T07:12:31;0.17;;;0.10;;
76256;SDS011;65074;50.436;8.672;2024-03-23T07:14:57;2.42;;;0.30;;
76256;SDS011;65074;50.436;8.672;2024-03-23T07:17:22;0.30;;;0.20;;
76256;SDS011;65074;50.436;8.672;2024-03-23T07:19:47;2.85;;;0.43;;
76256;SDS011;65074;50.436;8.672;2024-03-23T07:22:13;0.40;;;0.30;;
76256;SDS011;65074;50.436;8.672;2024-03-23T07:24:39;0.15;;;0.15;;
76256;SDS011;65074;50.436;8.672;2024-03-23T07:27:05;1.40;;;0.20;;
76256;SDS011;65074;50.436;8.672;2024-03-23T07:29:34;0.55;;;0.55;;
76256;SDS011;65074;50.436;8.672;2024-03-23T07:32:00;0.40;;;0.30;;
76256;SDS011;65074;50.436;8.672;2024-03-23T07:34:25;1.10;;;0.22;;
76256;SDS011;65074;50.436;8.672;2024-03-23T07:36:51;2.08;;;0.30;;
76256;SDS011;65074;50.436;8.672;2024-03-23T07:39:16;0.50;;;0.20;;
76256;SDS011;65074;50.436;8.672;2024-03-23T07:41:44;0.57;;;0.40;;
76256;SDS011;65074;50.436;8.672;2024-03-23T07:44:10;0.55;;;0.28;;
76256;SDS011;65074;50.436;8.672;2024-03-23T07:46:35;0.85;;;0.45;;
76256;SDS011;65074;50.436;8.672;2024-03-23T07:49:00;1.35;;;0.50;;
76256;SDS011;65074;50.436;8.672;2024-03-23T07:51:26;0.75;;;0.20;;
76256;SDS011;65074;50.436;8.672;2024-03-23T07:53:51;1.85;;;0.40;;
76256;SDS011;65074;50.436;8.672;2024-03-23T07:56:18;1.92;;;0.65;;
76256;SDS011;65074;50.436;8.672;2024-03-23T07:58:44;1.77;;;0.68;;
76256;SDS011;65074;50.436;8.672;2024-03-23T08:01:14;0.90;;;0.75;;
76256;SDS011;65074;50.436;8.672;2024-03-23T08:03:41;1.42;;;0.73;;
76256;SDS011;65074;50.436;8.672;2024-03-23T08:06:08;2.17;;;0.85;;
76256;SDS011;65074;50.436;8.672;2024-03-23T08:08:34;1.50;;;0.95;;
76256;SDS011;65074;50.436;8.672;2024-03-23T08:11:00;2.83;;;0.68;;
76256;SDS011;65074;50.436;8.672;2024-03-23T08:13:26;4.13;;;1.20;;
76256;SDS011;65074;50.436;8.672;2024-03-23T08:15:51;1.95;;;1.25;;
76256;SDS011;65074;50.436;8.672;2024-03-23T08:18:16;2.67;;;1.20;;
76256;SDS011;65074;50.436;8.672;2024-03-23T08:20:42;0.75;;;0.60;;
76256;SDS011;65074;50.436;8.672;2024-03-23T08:23:07;0.45;;;0.45;;
76256;SDS011;65074;50.436;8.672;2024-03-23T08:25:34;5.30;;;2.03;;
76256;SDS011;65074;50.436;8.672;2024-03-23T08:28:00;1.33;;;1.23;;
76256;SDS011;65074;50.436;8.672;2024-03-23T08:30:26;1.65;;;0.82;;
76256;SDS011;65074;50.436;8.672;2024-03-23T08:32:51;1.92;;;1.52;;
76256;SDS011;65074;50.436;8.672;2024-03-23T08:35:17;2.20;;;1.75;;
76256;SDS011;65074;50.436;8.672;2024-03-23T08:37:43;1.40;;;0.95;;
76256;SDS011;65074;50.436;8.672;2024-03-23T08:40:08;1.63;;;1.13;;
76256;SDS011;65074;50.436;8.672;2024-03-23T08:42:34;2.47;;;1.48;;
76256;SDS011;65074;50.436;8.672;2024-03-23T08:44:59;1.90;;;1.10;;
76256;SDS011;65074;50.436;8.672;2024-03-23T08:47:25;2.25;;;1.33;;
76256;SDS011;65074;50.436;8.672;2024-03-23T08:49:50;1.80;;;1.70;;
76256;SDS011;65074;50.436;8.672;2024-03-23T08:52:16;5.35;;;1.73;;
76256;SDS011;65074;50.436;8.672;2024-03-23T08:54:41;2.75;;;1.92;;
76256;SDS011;65074;50.436;8.672;2024-03-23T08:57:08;2.50;;;0.82;;
76256;SDS011;65074;50.436;8.672;2024-03-23T08:59:34;5.78;;;1.35;;
76256;SDS011;65074;50.436;8.672;2024-03-23T09:01:59;3.03;;;1.35;;
76256;SDS011;65074;50.436;8.672;2024-03-23T09:04:25;3.00;;;1.20;;
76256;SDS011;65074;50.436;8.672;2024-03-23T09:06:50;2.55;;;1.67;;
76256;SDS011;65074;50.436;8.672;2024-03-23T09:09:16;3.30;;;1.00;;
76256;SDS011;65074;50.436;8.672;2024-03-23T09:11:41;2.25;;;1.40;;
76256;SDS011;65074;50.436;8.672;2024-03-23T09:14:07;5.50;;;0.93;;
76256;SDS011;65074;50.436;8.672;2024-03-23T09:16:34;1.73;;;0.90;;
76256;SDS011;65074;50.436;8.672;2024-03-23T09:18:59;1.10;;;0.88;;
76256;SDS011;65074;50.436;8.672;2024-03-23T09:21:24;2.55;;;0.90;;
76256;SDS011;65074;50.436;8.672;2024-03-23T09:23:50;4.57;;;1.40;;
76256;SDS011;65074;50.436;8.672;2024-03-23T09:26:15;2.30;;;1.25;;
76256;SDS011;65074;50.436;8.672;2024-03-23T09:28:40;3.30;;;1.10;;
76256;SDS011;65074;50.436;8.672;2024-03-23T09:31:06;2.78;;;1.15;;
76256;SDS011;65074;50.436;8.672;2024-03-23T09:33:33;0.55;;;0.55;;
76256;SDS011;65074;50.436;8.672;2024-03-23T09:36:02;2.28;;;1.13;;
76256;SDS011;65074;50.436;8.672;2024-03-23T09:38:31;4.50;;;1.27;;
76256;SDS011;65074;50.436;8.672;2024-03-23T09:40:56;1.90;;;0.52;;
76256;SDS011;65074;50.436;8.672;2024-03-23T09:43:23;1.05;;;0.60;;
76256;SDS011;65074;50.436;8.672;2024-03-23T09:45:48;2.00;;;0.93;;
76256;SDS011;65074;50.436;8.672;2024-03-23T09:48:14;1.15;;;0.82;;
76256;SDS011;65074;50.436;8.672;2024-03-23T09:50:42;1.27;;;0.85;;
76256;SDS011;65074;50.436;8.672;2024-03-23T09:53:10;1.35;;;0.80;;
76256;SDS011;65074;50.436;8.672;2024-03-23T09:55:36;1.67;;;0.50;;
76256;SDS011;65074;50.436;8.672;2024-03-23T09:58:02;0.80;;;0.55;;
76256;SDS011;65074;50.436;8.672;2024-03-23T10:00:30;2.05;;;0.50;;
76256;SDS011;65074;50.436;8.672;2024-03-23T10:02:56;1.02;;;0.93;;
76256;SDS011;65074;50.436;8.672;2024-03-23T10:05:26;4.18;;;0.95;;
76256;SDS011;65074;50.436;8.672;2024-03-23T10:07:52;1.35;;;0.85;;
76256;SDS011;65074;50.436;8.672;2024-03-23T10:10:18;1.05;;;1.00;;
76256;SDS011;65074;50.436;8.672;2024-03-23T10:12:45;2.03;;;1.23;;
76256;SDS011;65074;50.436;8.672;2024-03-23T10:15:24;0.32;;;0.32;;
76256;SDS011;65074;50.436;8.672;2024-03-23T10:17:50;1.45;;;0.75;;
76256;SDS011;65074;50.436;8.672;2024-03-23T10:20:20;3.63;;;0.57;;
76256;SDS011;65074;50.436;8.672;2024-03-23T10:22:50;1.88;;;0.82;;
76256;SDS011;65074;50.436;8.672;2024-03-23T10:25:23;0.68;;;0.60;;
76256;SDS011;65074;50.436;8.672;2024-03-23T10:27:58;3.92;;;0.50;;
76256;SDS011;65074;50.436;8.672;2024-03-23T10:30:25;1.40;;;0.65;;
76256;SDS011;65074;50.436;8.672;2024-03-23T10:33:01;0.43;;;0.40;;
76256;SDS011;65074;50.436;8.672;2024-03-23T10:35:32;0.17;;;0.15;;
76256;SDS011;65074;50.436;8.672;2024-03-23T10:37:57;0.65;;;0.28;;
76256;SDS011;65074;50.436;8.672;2024-03-23T10:40:23;0.45;;;0.22;;
76256;SDS011;65074;50.436;8.672;2024-03-23T10:42:49;1.65;;;0.47;;
76256;SDS011;65074;50.436;8.672;2024-03-23T10:45:17;0.95;;;0.30;;
76256;SDS011;65074;50.436;8.672;2024-03-23T10:47:42;1.20;;;0.32;;
76256;SDS011;65074;50.436;8.672;2024-03-23T10:50:08;0.57;;;0.50;;
76256;SDS011;65074;50.436;8.672;2024-03-23T10:52:34;0.60;;;0.60;;
76256;SDS011;65074;50.436;8.672;2024-03-23T10:55:03;0.17;;;0.17;;
76256;SDS011;65074;50.436;8.672;2024-03-23T10:57:34;1.95;;;0.50;;
76256;SDS011;65074;50.436;8.672;2024-03-23T11:00:03;0.80;;;0.50;;
76256;SDS011;65074;50.436;8.672;2024-03-23T11:02:29;0.95;;;0.38;;
76256;SDS011;65074;50.436;8.672;2024-03-23T11:04:54;1.67;;;0.47;;
76256;SDS011;65074;50.436;8.672;2024-03-23T11:09:51;0.55;;;0.45;;
76256;SDS011;65074;50.436;8.672;2024-03-23T11:15:34;0.47;;;0.20;;
76256;SDS011;65074;50.436;8.672;2024-03-23T11:17:37;7.43;;;1.13;;
76256;SDS011;65074;50.436;8.672;2024-03-23T11:20:04;1.27;;;0.30;;
76256;SDS011;65074;50.436;8.672;2024-03-23T11:22:43;1.45;;;0.10;;
76256;SDS011;65074;50.436;8.672;2024-03-23T11:25:12;1.75;;;0.45;;
76256;SDS011;65074;50.436;8.672;2024-03-23T11:28:12;0.32;;;0.25;;
76256;SDS011;65074;50.436;8.672;2024-03-23T11:30:37;2.40;;;0.32;;
76256;SDS011;65074;50.436;8.672;2024-03-23T11:33:05;0.68;;;0.38;;
76256;SDS011;65074;50.436;8.672;2024-03-23T11:35:32;1.23;;;0.43;;
76256;SDS011;65074;50.436;8.672;2024-03-23T11:38:11;3.25;;;0.50;;
76256;SDS011;65074;50.436;8.672;2024-03-23T11:40:42;1.67;;;0.70;;
76256;SDS011;65074;50.436;8.672;2024-03-23T11:43:08;0.82;;;0.45;;
76256;SDS011;65074;50.436;8.672;2024-03-23T11:45:46;0.00;;;0.00;;
76256;SDS011;65074;50.436;8.672;2024-03-23T11:48:14;0.50;;;0.35;;
76256;SDS011;65074;50.436;8.672;2024-03-23T11:50:45;8.32;;;0.40;;
76256;SDS011;65074;50.436;8.672;2024-03-23T11:53:21;4.10;;;0.25;;
76256;SDS011;65074;50.436;8.672;2024-03-23T11:55:51;2.28;;;0.40;;
76256;SDS011;65074;50.436;8.672;2024-03-23T11:58:18;2.67;;;0.70;;
76256;SDS011;65074;50.436;8.672;2024-03-23T12:01:02;1.92;;;0.45;;
76256;SDS011;65074;50.436;8.672;2024-03-23T12:03:30;1.30;;;0.17;;
76256;SDS011;65074;50.436;8.672;2024-03-23T12:05:58;1.20;;;0.50;;
76256;SDS011;65074;50.436;8.672;2024-03-23T12:08:29;0.50;;;0.43;;
76256;SDS011;65074;50.436;8.672;2024-03-23T12:13:29;3.05;;;1.08;;
76256;SDS011;65074;50.436;8.672;2024-03-23T12:15:55;0.77;;;0.77;;
76256;SDS011;65074;50.436;8.672;2024-03-23T12:18:36;0.30;;;0.30;;
76256;SDS011;65074;50.436;8.672;2024-03-23T12:21:02;0.30;;;0.30;;
76256;SDS011;65074;50.436;8.672;2024-03-23T12:23:28;1.52;;;0.43;;
76256;SDS011;65074;50.436;8.672;2024-03-23T12:25:53;0.80;;;0.43;;
76256;SDS011;65074;50.436;8.672;2024-03-23T12:28:18;0.77;;;0.63;;
76256;SDS011;65074;50.436;8.672;2024-03-23T12:30:44;0.82;;;0.50;;
76256;SDS011;65074;50.436;8.672;2024-03-23T12:33:09;0.40;;;0.20;;
76256;SDS011;65074;50.436;8.672;2024-03-23T12:35:34;0.30;;;0.30;;
76256;SDS011;65074;50.436;8.672;2024-03-23T12:38:00;1.77;;;0.93;;
76256;SDS011;65074;50.436;8.672;2024-03-23T12:40:26;6.00;;;0.75;;
76256;SDS011;65074;50.436;8.672;2024-03-23T12:42:53;0.77;;;0.50;;
76256;SDS011;65074;50.436;8.672;2024-03-23T12:45:19;0.15;;;0.10;;
76256;SDS011;65074;50.436;8.672;2024-03-23T12:47:44;3.33;;;0.70;;
76256;SDS011;65074;50.436;8.672;2024-03-23T12:50:10;0.20;;;0.20;;
76256;SDS011;65074;50.436;8.672;2024-03-23T12:52:36;3.20;;;0.50;;
76256;SDS011;65074;50.436;8.672;2024-03-23T12:55:02;0.17;;;0.17;;
76256;SDS011;65074;50.436;8.672;2024-03-23T12:57:28;0.98;;;0.40;;
76256;SDS011;65074;50.436;8.672;2024-03-23T12:59:54;0.17;;;0.17;;
76256;SDS011;65074;50.436;8.672;2024-03-23T13:02:20;2.10;;;0.50;;
76256;SDS011;65074;50.436;8.672;2024-03-23T13:04:46;0.32;;;0.32;;
76256;SDS011;65074;50.436;8.672;2024-03-23T13:07:14;1.00;;;0.20;;
76256;SDS011;65074;50.436;8.672;2024-03-23T13:09:40;5.47;;;0.40;;
76256;SDS011;65074;50.436;8.672;2024-03-23T13:12:05;0.22;;;0.10;;
76256;SDS011;65074;50.436;8.672;2024-03-23T13:14:31;0.40;;;0.20;;
76256;SDS011;65074;50.436;8.672;2024-03-23T13:16:56;0.40;;;0.40;;
76256;SDS011;65074;50.436;8.672;2024-03-23T13:19:22;0.45;;;0.30;;
76256;SDS011;65074;50.436;8.672;2024-03-23T13:24:17;0.50;;;0.40;;
76256;SDS011;65074;50.436;8.672;2024-03-23T13:26:42;0.10;;;0.08;;
76256;SDS011;65074;50.436;8.672;2024-03-23T13:29:07;0.63;;;0.10;;
76256;SDS011;65074;50.436;8.672;2024-03-23T13:31:33;0.30;;;0.30;;
76256;SDS011;65074;50.436;8.672;2024-03-23T13:33:59;0.22;;;0.22;;
76256;SDS011;65074;50.436;8.672;2024-03-23T13:36:24;0.28;;;0.08;;
76256;SDS011;65074;50.436;8.672;2024-03-23T13:38:50;0.40;;;0.40;;
76256;SDS011;65074;50.436;8.672;2024-03-23T13:41:16;0.00;;;0.00;;
76256;SDS011;65074;50.436;8.672;2024-03-23T13:43:41;0.10;;;0.00;;
76256;SDS011;65074;50.436;8.672;2024-03-23T13:46:07;0.57;;;0.30;;
76256;SDS011;65074;50.436;8.672;2024-03-23T13:48:32;0.65;;;0.45;;
76256;SDS011;65074;50.436;8.672;2024-03-23T13:50:59;0.10;;;0.10;;
76256;SDS011;65074;50.436;8.672;2024-03-23T13:53:25;0.00;;;0.00;;
76256;SDS011;65074;50.436;8.672;2024-03-23T13:55:50;3.53;;;0.20;;
76256;SDS011;65074;50.436;8.672;2024-03-23T13:58:16;0.10;;;0.10;;
76256;SDS011;65074;50.436;8.672;2024-03-23T14:00:41;0.68;;;0.38;;
76256;SDS011;65074;50.436;8.672;2024-03-23T14:03:10;0.77;;;0.35;;
76256;SDS011;65074;50.436;8.672;2024-03-23T14:05:36;2.50;;;0.20;;
76256;SDS011;65074;50.436;8.672;2024-03-23T14:08:08;0.30;;;0.30;;
76256;SDS011;65074;50.436;8.672;2024-03-23T14:10:34;0.40;;;0.30;;
76256;SDS011;65074;50.436;8.672;2024-03-23T14:13:03;0.77;;;0.47;;
76256;SDS011;65074;50.436;8.672;2024-03-23T14:15:29;0.50;;;0.32;;
76256;SDS011;65074;50.436;8.672;2024-03-23T14:17:55;0.50;;;0.22;;
76256;SDS011;65074;50.436;8.672;2024-03-23T14:20:21;0.40;;;0.40;;
76256;SDS011;65074;50.436;8.672;2024-03-23T14:22:47;0.20;;;0.20;;
76256;SDS011;65074;50.436;8.672;2024-03-23T14:25:12;1.23;;;0.40;;
76256;SDS011;65074;50.436;8.672;2024-03-23T14:27:38;1.05;;;0.40;;
76256;SDS011;65074;50.436;8.672;2024-03-23T14:30:03;0.25;;;0.20;;
76256;SDS011;65074;50.436;8.672;2024-03-23T14:32:30;0.57;;;0.45;;
76256;SDS011;65074;50.436;8.672;2024-03-23T14:34:59;1.00;;;0.20;;
76256;SDS011;65074;50.436;8.672;2024-03-23T14:37:36;0.95;;;0.40;;
76256;SDS011;65074;50.436;8.672;2024-03-23T14:40:03;0.30;;;0.22;;
76256;SDS011;65074;50.436;8.672;2024-03-23T14:42:28;0.22;;;0.22;;
76256;SDS011;65074;50.436;8.672;2024-03-23T14:44:54;0.40;;;0.28;;
76256;SDS011;65074;50.436;8.672;2024-03-23T14:47:19;1.73;;;0.70;;
76256;SDS011;65074;50.436;8.672;2024-03-23T14:49:46;0.60;;;0.40;;
76256;SDS011;65074;50.436;8.672;2024-03-23T14:52:14;0.20;;;0.20;;
76256;SDS011;65074;50.436;8.672;2024-03-23T14:54:40;0.32;;;0.28;;
76256;SDS011;65074;50.436;8.672;2024-03-23T14:57:05;0.28;;;0.22;;
76256;SDS011;65074;50.436;8.672;2024-03-23T14:59:34;0.75;;;0.40;;
76256;SDS011;65074;50.436;8.672;2024-03-23T15:02:00;0.90;;;0.40;;
76256;SDS011;65074;50.436;8.672;2024-03-23T15:04:25;1.38;;;0.45;;
76256;SDS011;65074;50.436;8.672;2024-03-23T15:06:50;1.10;;;0.25;;
76256;SDS011;65074;50.436;8.672;2024-03-23T15:09:16;0.73;;;0.32;;
76256;SDS011;65074;50.436;8.672;2024-03-23T15:11:42;0.32;;;0.22;;
76256;SDS011;65074;50.436;8.672;2024-03-23T15:14:07;0.90;;;0.52;;
76256;SDS011;65074;50.436;8.672;2024-03-23T15:16:33;0.65;;;0.32;;
76256;SDS011;65074;50.436;8.672;2024-03-23T15:18:58;0.60;;;0.30;;
76256;SDS011;65074;50.436;8.672;2024-03-23T15:21:25;0.88;;;0.47;;
76256;SDS011;65074;50.436;8.672;2024-03-23T15:23:50;0.40;;;0.30;;
76256;SDS011;65074;50.436;8.672;2024-03-23T15:26:15;0.70;;;0.50;;
76256;SDS011;65074;50.436;8.672;2024-03-23T15:28:41;0.43;;;0.43;;
76256;SDS011;65074;50.436;8.672;2024-03-23T15:31:27;0.80;;;0.35;;
76256;SDS011;65074;50.436;8.672;2024-03-23T15:33:52;1.35;;;0.30;;
76256;SDS011;65074;50.436;8.672;2024-03-23T15:36:18;0.65;;;0.50;;
76256;SDS011;65074;50.436;8.672;2024-03-23T15:38:43;0.43;;;0.28;;
76256;SDS011;65074;50.436;8.672;2024-03-23T15:41:09;1.35;;;0.52;;
76256;SDS011;65074;50.436;8.672;2024-03-23T15:43:35;0.50;;;0.50;;
76256;SDS011;65074;50.436;8.672;2024-03-23T15:46:01;0.75;;;0.45;;
76256;SDS011;65074;50.436;8.672;2024-03-23T15:48:28;0.77;;;0.50;;